createdAt,value
2018-12-03T00:00:35.537Z,12.70
2018-12-03T00:03:05.156Z,12.70
2018-12-03T00:05:33.680Z,12.70
2018-12-03T00:08:02.211Z,12.80
2018-12-03T00:10:30.759Z,12.80
2018-12-03T00:12:59.226Z,12.80
2018-12-03T00:15:27.825Z,12.80
2018-12-03T00:17:56.381Z,12.80
2018-12-03T00:20:24.954Z,12.80
2018-12-03T00:22:53.460Z,12.80
2018-12-03T00:25:22.009Z,12.80
2018-12-03T00:27:53.199Z,12.80
2018-12-03T00:30:21.797Z,12.80
2018-12-03T00:32:50.741Z,12.80
2018-12-03T00:35:19.255Z,12.80
2018-12-03T00:37:47.744Z,12.80
2018-12-03T00:40:16.244Z,12.70
2018-12-03T00:42:44.836Z,12.80
2018-12-03T00:45:13.356Z,12.80
2018-12-03T00:47:41.843Z,12.70
2018-12-03T00:50:10.363Z,12.70
2018-12-03T00:52:38.840Z,12.70
2018-12-03T00:55:08.020Z,12.70
2018-12-03T00:57:36.572Z,12.70
2018-12-03T01:00:07.392Z,12.70
2018-12-03T01:02:35.874Z,12.70
2018-12-03T01:05:04.767Z,12.70
2018-12-03T01:07:33.352Z,12.70
2018-12-03T01:10:01.881Z,12.80
2018-12-03T01:12:30.399Z,12.70
2018-12-03T01:14:58.946Z,12.80
2018-12-03T01:17:27.441Z,12.70
2018-12-03T01:19:55.948Z,12.80
2018-12-03T01:22:24.463Z,12.80
2018-12-03T01:24:52.965Z,12.80
2018-12-03T01:27:21.496Z,12.80
2018-12-03T01:29:49.985Z,12.80
2018-12-03T01:32:18.522Z,12.80
2018-12-03T01:34:47.055Z,12.80
2018-12-03T01:37:15.547Z,12.80
2018-12-03T01:39:44.074Z,12.80
2018-12-03T01:42:12.552Z,12.80
2018-12-03T01:44:41.046Z,12.70
2018-12-03T01:47:09.544Z,12.70
2018-12-03T01:49:38.108Z,12.70
2018-12-03T01:52:06.746Z,12.70
2018-12-03T01:54:35.436Z,12.60
2018-12-03T01:57:04.005Z,12.60
2018-12-03T01:59:32.482Z,12.60
2018-12-03T02:02:00.987Z,12.50
2018-12-03T02:04:29.480Z,12.50
2018-12-03T02:06:58.013Z,12.60
2018-12-03T02:09:26.584Z,12.50
2018-12-03T02:11:55.087Z,12.60
2018-12-03T02:14:23.560Z,12.60
2018-12-03T02:16:52.137Z,12.60
2018-12-03T02:19:20.620Z,12.60
2018-12-03T02:21:49.180Z,12.50
2018-12-03T02:24:17.734Z,12.60
2018-12-03T02:26:46.357Z,12.60
2018-12-03T02:29:14.895Z,12.70
2018-12-03T02:31:43.388Z,12.70
2018-12-03T02:34:11.905Z,12.70
2018-12-03T02:36:40.612Z,12.70
2018-12-03T02:39:09.232Z,12.70
2018-12-03T02:41:37.927Z,12.70
2018-12-03T02:44:06.462Z,12.70
2018-12-03T02:46:34.955Z,12.80
2018-12-03T02:49:03.432Z,12.70
2018-12-03T02:51:31.972Z,12.70
2018-12-03T02:54:00.415Z,12.60
2018-12-03T02:56:28.984Z,12.60
2018-12-03T02:58:57.543Z,12.50
2018-12-03T03:01:26.050Z,12.50
2018-12-03T03:03:54.712Z,12.50
2018-12-03T03:06:23.284Z,12.60
2018-12-03T03:08:51.752Z,12.50
2018-12-03T03:11:20.304Z,12.50
2018-12-03T03:13:48.813Z,12.50
2018-12-03T03:16:17.327Z,12.50
2018-12-03T03:18:45.796Z,12.50
2018-12-03T03:21:14.273Z,12.40
2018-12-03T03:23:42.752Z,12.40
2018-12-03T03:26:11.260Z,12.40
2018-12-03T03:28:39.736Z,12.40
2018-12-03T03:31:08.255Z,12.40
2018-12-03T03:33:36.755Z,12.40
2018-12-03T03:36:05.271Z,12.50
2018-12-03T03:38:34.000Z,12.50
2018-12-03T03:41:02.527Z,12.50
2018-12-03T03:43:31.110Z,12.60
2018-12-03T03:45:59.579Z,12.60
2018-12-03T03:48:28.061Z,12.70
2018-12-03T03:50:56.505Z,12.70
2018-12-03T03:53:24.964Z,12.70
2018-12-03T03:55:53.652Z,12.70
2018-12-03T03:58:22.141Z,12.70
2018-12-03T04:00:50.607Z,12.70
2018-12-03T04:03:19.087Z,12.60
2018-12-03T04:05:47.566Z,12.60
2018-12-03T04:08:16.101Z,12.50
2018-12-03T04:10:44.622Z,12.50
2018-12-03T04:13:13.167Z,12.40
2018-12-03T04:15:41.703Z,12.30
2018-12-03T04:18:10.195Z,12.30
2018-12-03T04:20:38.670Z,12.20
2018-12-03T04:23:07.252Z,12.10
2018-12-03T04:25:35.697Z,12.10
2018-12-03T04:28:04.244Z,12.00
2018-12-03T04:30:32.691Z,12.00
2018-12-03T04:33:01.182Z,12.00
2018-12-03T04:35:29.630Z,12.10
2018-12-03T04:37:58.168Z,12.00
2018-12-03T04:40:26.688Z,12.00
2018-12-03T04:42:55.200Z,12.10
2018-12-03T04:45:23.716Z,12.20
2018-12-03T04:47:52.304Z,12.20
2018-12-03T04:50:21.808Z,12.20
2018-12-03T04:52:50.307Z,12.20
2018-12-03T04:55:19.783Z,12.30
2018-12-03T04:57:48.408Z,12.30
2018-12-03T05:00:18.292Z,12.40
2018-12-03T05:02:49.246Z,12.40
2018-12-03T05:05:17.998Z,12.40
2018-12-03T05:07:46.558Z,12.40
2018-12-03T05:10:16.248Z,12.40
2018-12-03T05:12:45.960Z,12.40
2018-12-03T05:15:14.626Z,12.40
2018-12-03T05:17:43.633Z,12.40
2018-12-03T05:20:15.628Z,12.40
2018-12-03T05:22:44.256Z,12.30
2018-12-03T05:25:12.587Z,12.40
2018-12-03T05:27:41.075Z,12.40
2018-12-03T05:30:12.439Z,12.40
2018-12-03T05:32:41.480Z,12.40
2018-12-03T05:35:12.234Z,12.30
2018-12-03T05:37:40.802Z,12.30
2018-12-03T05:40:16.526Z,12.20
2018-12-03T05:42:45.286Z,12.20
2018-12-03T05:45:13.830Z,12.20
2018-12-03T05:47:42.366Z,12.20
2018-12-03T05:50:13.773Z,12.20
2018-12-03T05:52:45.291Z,12.20
2018-12-03T05:55:14.232Z,12.20
2018-12-03T05:57:43.073Z,12.20
2018-12-03T06:00:15.903Z,12.30
2018-12-03T06:02:44.411Z,12.20
2018-12-03T06:05:13.752Z,12.30
2018-12-03T06:07:42.283Z,12.30
2018-12-03T06:10:15.201Z,12.30
2018-12-03T06:12:43.749Z,12.20
2018-12-03T06:15:13.187Z,12.20
2018-12-03T06:17:41.716Z,12.30
2018-12-03T06:20:15.329Z,12.30
2018-12-03T06:22:43.870Z,12.30
2018-12-03T06:25:14.500Z,12.30
2018-12-03T06:27:42.957Z,12.30
2018-12-03T06:30:15.490Z,12.30
2018-12-03T06:32:43.998Z,12.20
2018-12-03T06:35:13.626Z,12.20
2018-12-03T06:37:42.149Z,12.10
2018-12-03T06:40:17.569Z,12.10
2018-12-03T06:42:46.070Z,12.10
2018-12-03T06:45:16.688Z,12.10
2018-12-03T06:47:50.127Z,12.10
2018-12-03T06:50:18.639Z,12.20
2018-12-03T06:52:47.106Z,12.20
2018-12-03T06:55:15.658Z,12.10
2018-12-03T06:57:44.236Z,12.10
2018-12-03T07:00:14.911Z,12.10
2018-12-03T07:02:43.935Z,12.10
2018-12-03T07:05:12.546Z,12.10
2018-12-03T07:07:41.874Z,12.10
2018-12-03T07:10:12.897Z,12.10
2018-12-03T07:12:41.558Z,12.10
2018-12-03T07:15:11.431Z,12.10
2018-12-03T07:17:39.929Z,12.10
2018-12-03T07:20:11.084Z,12.20
2018-12-03T07:22:39.935Z,12.10
2018-12-03T07:25:10.381Z,12.10
2018-12-03T07:27:39.019Z,12.10
2018-12-03T07:30:22.595Z,12.00
2018-12-03T07:32:51.648Z,12.00
2018-12-03T07:35:20.835Z,11.90
2018-12-03T07:37:50.491Z,11.90
2018-12-03T07:40:18.934Z,12.00
2018-12-03T07:42:47.405Z,12.00
2018-12-03T07:45:19.106Z,12.00
2018-12-03T07:47:47.613Z,12.20
2018-12-03T07:50:17.232Z,12.20
2018-12-03T07:52:45.793Z,12.10
2018-12-03T07:55:15.505Z,12.10
2018-12-03T07:58:18.629Z,12.10
2018-12-03T08:00:49.723Z,12.10
2018-12-03T08:03:18.209Z,12.00
2018-12-03T08:05:47.413Z,12.00
2018-12-03T08:08:15.208Z,12.00
2018-12-03T08:10:49.622Z,11.90
2018-12-03T08:13:18.894Z,11.90
2018-12-03T08:15:47.373Z,11.90
2018-12-03T08:18:17.480Z,11.90
2018-12-03T08:21:05.353Z,11.90
2018-12-03T08:23:47.283Z,12.00
2018-12-03T08:26:22.537Z,12.00
2018-12-03T08:28:51.034Z,12.00
2018-12-03T08:31:19.520Z,12.00
2018-12-03T08:33:47.997Z,12.10
2018-12-03T08:36:16.512Z,12.10
2018-12-03T08:38:44.989Z,12.10
2018-12-03T08:41:13.456Z,12.10
2018-12-03T08:43:42.026Z,12.10
2018-12-03T08:46:11.109Z,12.10
2018-12-03T08:48:40.896Z,12.10
2018-12-03T08:51:10.315Z,12.00
2018-12-03T08:53:38.871Z,12.00
2018-12-03T08:56:07.559Z,12.10
2018-12-03T08:58:36.048Z,12.00
2018-12-03T09:01:09.340Z,12.00
2018-12-03T09:03:37.800Z,12.00
2018-12-03T09:06:09.356Z,12.00
2018-12-03T09:08:37.891Z,12.00
2018-12-03T09:11:08.993Z,12.00
2018-12-03T09:13:37.502Z,12.00
2018-12-03T09:16:06.064Z,12.00
2018-12-03T09:18:39.090Z,12.10
2018-12-03T09:21:10.415Z,12.10
2018-12-03T09:23:39.292Z,12.10
2018-12-03T09:26:08.694Z,12.10
2018-12-03T09:28:38.298Z,12.10
2018-12-03T09:31:07.119Z,12.10
2018-12-03T09:33:36.175Z,12.10
2018-12-03T09:36:05.244Z,12.10
2018-12-03T09:38:43.808Z,12.20
2018-12-03T09:41:12.983Z,12.20
2018-12-03T09:43:43.507Z,12.30
2018-12-03T09:46:12.104Z,12.20
2018-12-03T09:48:40.576Z,12.20
2018-12-03T09:51:08.855Z,12.30
2018-12-03T09:53:37.305Z,12.30
2018-12-03T09:56:06.504Z,12.30
2018-12-03T09:58:34.970Z,12.30
2018-12-03T10:01:03.578Z,12.30
2018-12-03T10:03:38.228Z,12.20
2018-12-03T10:06:11.784Z,12.20
2018-12-03T10:08:40.203Z,12.20
2018-12-03T10:11:09.610Z,12.30
2018-12-03T10:13:38.055Z,12.30
2018-12-03T10:16:06.880Z,12.40
2018-12-03T10:18:35.339Z,12.40
2018-12-03T10:21:03.822Z,12.40
2018-12-03T10:23:32.288Z,12.50
2018-12-03T10:26:01.264Z,12.40
2018-12-03T10:28:29.822Z,12.60
2018-12-03T10:30:58.727Z,12.70
2018-12-03T10:33:30.892Z,12.70
2018-12-03T10:36:00.797Z,12.70
2018-12-03T10:38:32.167Z,12.70
2018-12-03T10:41:03.099Z,12.70
2018-12-03T10:43:31.576Z,12.60
2018-12-03T10:46:00.054Z,12.60
2018-12-03T10:48:28.554Z,12.60
2018-12-03T10:50:57.124Z,12.60
2018-12-03T10:53:27.357Z,12.60
2018-12-03T10:55:55.964Z,12.70
2018-12-03T10:58:24.471Z,12.60
2018-12-03T11:01:04.147Z,12.60
2018-12-03T11:03:37.873Z,12.60
2018-12-03T11:06:12.041Z,12.50
2018-12-03T11:08:40.588Z,12.60
2018-12-03T11:11:09.112Z,12.70
2018-12-03T11:13:37.603Z,12.60
2018-12-03T11:16:08.159Z,12.60
2018-12-03T11:18:50.578Z,12.70
2018-12-03T11:21:19.068Z,12.70
2018-12-03T11:23:47.544Z,12.80
2018-12-03T11:26:16.023Z,12.70
2018-12-03T11:28:46.945Z,12.70
2018-12-03T11:31:24.269Z,12.70
2018-12-03T11:33:52.736Z,12.70
2018-12-03T11:36:25.190Z,12.70
2018-12-03T11:40:02.845Z,12.60
2018-12-03T11:42:34.848Z,12.60
2018-12-03T11:45:03.410Z,12.70
2018-12-03T11:47:31.875Z,12.70
2018-12-03T11:50:00.402Z,12.70
2018-12-03T11:52:28.951Z,12.70
2018-12-03T11:54:57.440Z,12.80
2018-12-03T11:57:26.311Z,12.90
2018-12-03T11:59:54.783Z,12.90
2018-12-03T12:02:23.268Z,12.90
2018-12-03T12:04:51.713Z,12.90
2018-12-03T12:07:20.189Z,12.90
2018-12-03T12:09:48.654Z,12.90
2018-12-03T12:12:17.134Z,12.90
2018-12-03T12:14:45.580Z,13.00
2018-12-03T12:17:14.060Z,13.00
2018-12-03T12:19:42.577Z,13.10
2018-12-03T12:22:11.035Z,13.00
2018-12-03T12:24:39.516Z,13.00
2018-12-03T12:27:09.093Z,13.00
2018-12-03T12:29:37.558Z,12.90
2018-12-03T12:32:06.152Z,12.90
2018-12-03T12:34:34.683Z,12.90
2018-12-03T12:37:03.132Z,12.90
2018-12-03T12:39:31.624Z,12.90
2018-12-03T12:42:00.063Z,12.80
2018-12-03T12:44:28.667Z,12.80
2018-12-03T12:46:57.117Z,12.80
2018-12-03T12:49:25.648Z,12.90
2018-12-03T12:51:54.155Z,12.90
2018-12-03T12:54:22.647Z,12.90
2018-12-03T12:56:51.116Z,12.90
2018-12-03T12:59:19.611Z,12.90
2018-12-03T13:01:48.260Z,13.00
2018-12-03T13:04:16.739Z,13.00
2018-12-03T13:06:51.809Z,13.00
2018-12-03T13:09:20.331Z,13.10
2018-12-03T13:11:48.815Z,13.00
2018-12-03T13:14:17.265Z,13.00
2018-12-03T13:16:45.787Z,13.10
2018-12-03T13:19:14.247Z,13.10
2018-12-03T13:21:42.828Z,13.10
2018-12-03T13:24:11.355Z,13.20
2018-12-03T13:26:42.124Z,13.20
2018-12-03T13:29:10.671Z,13.20
2018-12-03T13:31:39.148Z,13.20
2018-12-03T13:34:08.493Z,13.20
2018-12-03T13:36:37.012Z,13.20
2018-12-03T13:39:08.570Z,13.20
2018-12-03T13:41:37.055Z,13.20
2018-12-03T13:44:07.107Z,13.20
2018-12-03T13:46:35.640Z,13.20
2018-12-03T13:49:04.233Z,13.10
2018-12-03T13:51:32.768Z,13.10
2018-12-03T13:54:01.319Z,13.10
2018-12-03T13:56:29.862Z,13.10
2018-12-03T13:58:59.497Z,13.10
2018-12-03T14:01:27.958Z,13.10
2018-12-03T14:04:01.651Z,13.00
2018-12-03T14:06:42.090Z,13.00
2018-12-03T14:10:30.585Z,13.00
2018-12-03T14:13:13.717Z,13.00
2018-12-03T14:15:53.440Z,12.90
2018-12-03T14:18:27.321Z,12.90
2018-12-03T14:20:59.993Z,12.80
2018-12-03T14:23:32.679Z,12.80
2018-12-03T14:26:01.142Z,12.90
2018-12-03T14:28:29.655Z,12.80
2018-12-03T14:30:58.169Z,12.80
2018-12-03T14:33:26.733Z,12.80
2018-12-03T14:35:55.287Z,12.80
2018-12-03T14:38:23.748Z,12.80
2018-12-03T14:40:52.626Z,12.80
2018-12-03T14:43:21.111Z,12.80
2018-12-03T14:45:49.575Z,12.80
2018-12-03T14:48:18.061Z,12.70
2018-12-03T14:50:47.724Z,12.60
2018-12-03T14:53:16.284Z,12.60
2018-12-03T14:55:44.761Z,12.60
2018-12-03T14:58:13.259Z,12.60
2018-12-03T15:00:41.873Z,12.50
2018-12-03T15:03:10.374Z,12.50
2018-12-03T15:05:38.867Z,12.50
2018-12-03T15:08:07.389Z,12.40
2018-12-03T15:10:35.855Z,12.30
2018-12-03T15:13:04.348Z,12.30
2018-12-03T15:15:32.784Z,12.20
2018-12-03T15:18:01.246Z,12.20
2018-12-03T15:20:29.739Z,12.20
2018-12-03T15:22:58.612Z,12.20
2018-12-03T15:25:27.071Z,12.20
2018-12-03T15:27:56.382Z,12.20
2018-12-03T15:30:24.875Z,12.10
2018-12-03T15:32:53.359Z,12.10
2018-12-03T15:35:21.844Z,12.00
2018-12-03T15:37:50.289Z,12.00
2018-12-03T15:40:18.773Z,12.00
2018-12-03T15:42:47.288Z,12.00
2018-12-03T15:45:17.396Z,12.00
2018-12-03T15:47:46.571Z,12.00
2018-12-03T15:50:15.064Z,11.90
2018-12-03T15:52:43.597Z,11.80
2018-12-03T15:55:12.186Z,11.80
2018-12-03T15:57:40.731Z,11.80
2018-12-03T16:00:11.405Z,11.80
2018-12-03T16:02:39.920Z,11.90
2018-12-03T16:05:11.315Z,11.90
2018-12-03T16:07:40.691Z,11.90
2018-12-03T16:10:11.607Z,11.90
2018-12-03T16:12:40.118Z,11.80
2018-12-03T16:15:09.398Z,11.90
2018-12-03T16:17:37.861Z,11.90
2018-12-03T16:20:08.176Z,11.90
2018-12-03T16:22:36.642Z,12.00
2018-12-03T16:25:06.845Z,11.90
2018-12-03T16:27:35.352Z,12.00
2018-12-03T16:30:06.533Z,12.00
2018-12-03T16:32:35.021Z,12.00
2018-12-03T16:35:03.635Z,12.00
2018-12-03T16:37:32.496Z,11.90
2018-12-03T16:40:00.995Z,11.90
2018-12-03T16:42:29.513Z,12.00
2018-12-03T16:44:58.021Z,12.00
2018-12-03T16:47:26.623Z,12.00
2018-12-03T16:49:55.112Z,12.00
2018-12-03T16:52:23.623Z,12.10
2018-12-03T16:54:52.148Z,12.00
2018-12-03T16:57:22.637Z,12.00
2018-12-03T16:59:52.177Z,12.00
2018-12-03T17:02:20.721Z,12.00
2018-12-03T17:04:49.211Z,12.00
2018-12-03T17:07:17.678Z,12.10
2018-12-03T17:09:46.298Z,12.10
2018-12-03T17:12:14.750Z,12.10
2018-12-03T17:14:43.267Z,12.10
2018-12-03T17:17:11.772Z,12.10
2018-12-03T17:19:40.322Z,12.10
2018-12-03T17:22:17.319Z,12.10
2018-12-03T17:24:47.035Z,12.10
2018-12-03T17:27:19.694Z,12.10
2018-12-03T17:29:49.060Z,12.10
2018-12-03T17:32:17.572Z,12.10
2018-12-03T17:34:48.851Z,12.20
2018-12-03T17:37:14.615Z,12.20
2018-12-03T17:39:43.459Z,12.20
2018-12-03T17:42:11.955Z,12.20
2018-12-03T17:44:40.439Z,12.10
2018-12-03T17:47:08.883Z,12.10
2018-12-03T17:49:37.352Z,12.10
2018-12-03T17:52:06.016Z,12.10
2018-12-03T17:54:34.479Z,12.10
2018-12-03T17:57:02.956Z,12.10
2018-12-03T17:59:32.239Z,12.10
2018-12-03T18:02:00.697Z,12.10
2018-12-03T18:04:29.187Z,12.10
2018-12-03T18:06:57.659Z,12.10
2018-12-03T18:09:26.160Z,12.10
2018-12-03T18:11:54.649Z,12.00
2018-12-03T18:14:23.134Z,12.10
2018-12-03T18:16:51.642Z,12.00
2018-12-03T18:19:21.074Z,12.00
2018-12-03T18:21:49.579Z,12.10
2018-12-03T18:24:18.036Z,12.10
2018-12-03T18:26:50.431Z,12.10
2018-12-03T18:29:18.872Z,12.10
2018-12-03T18:31:47.364Z,12.00
2018-12-03T18:34:15.853Z,12.10
2018-12-03T18:36:44.344Z,12.00
2018-12-03T18:39:12.843Z,12.00
2018-12-03T18:41:41.301Z,12.00
2018-12-03T18:44:09.836Z,12.00
2018-12-03T18:46:38.329Z,12.00
2018-12-03T18:49:17.531Z,12.00
2018-12-03T18:51:45.996Z,12.00
2018-12-03T18:54:14.492Z,12.00
2018-12-03T18:56:42.963Z,12.00
2018-12-03T18:59:11.495Z,12.00
2018-12-03T19:01:39.990Z,12.00
2018-12-03T19:04:09.073Z,12.00
2018-12-03T19:06:37.579Z,12.00
2018-12-03T19:09:08.086Z,12.00
2018-12-03T19:11:36.631Z,12.10
2018-12-03T19:14:05.120Z,12.00
2018-12-03T19:16:33.593Z,12.00
2018-12-03T19:19:02.079Z,12.00
2018-12-03T19:21:30.999Z,11.90
2018-12-03T19:23:59.483Z,11.90
2018-12-03T19:26:27.959Z,11.90
2018-12-03T19:28:56.435Z,11.80
2018-12-03T19:31:24.886Z,11.80
2018-12-03T19:33:53.386Z,11.80
2018-12-03T19:36:21.852Z,11.70
2018-12-03T19:38:50.506Z,11.70
2018-12-03T19:41:19.055Z,11.70
2018-12-03T19:43:47.601Z,11.70
2018-12-03T19:46:16.140Z,11.70
2018-12-03T19:49:26.068Z,11.60
2018-12-03T19:51:55.668Z,11.60
2018-12-03T19:54:24.100Z,11.60
2018-12-03T19:56:52.610Z,11.60
2018-12-03T19:59:22.491Z,11.50
2018-12-03T20:01:50.927Z,11.60
2018-12-03T20:04:25.722Z,11.50
2018-12-03T20:06:54.168Z,11.50
2018-12-03T20:09:22.649Z,11.50
2018-12-03T20:11:57.679Z,11.60
2018-12-03T20:14:26.370Z,11.50
2018-12-03T20:16:55.276Z,11.50
2018-12-03T20:19:23.847Z,11.50
2018-12-03T20:21:52.807Z,11.50
2018-12-03T20:24:24.445Z,11.50
2018-12-03T20:27:21.452Z,11.40
2018-12-03T20:29:59.762Z,11.40
2018-12-03T20:32:37.618Z,11.40
2018-12-03T20:35:11.185Z,11.40
2018-12-03T20:37:59.995Z,11.40
2018-12-03T20:40:46.215Z,11.40
2018-12-03T20:43:18.662Z,11.40
2018-12-03T20:48:03.932Z,11.30
2018-12-03T20:50:48.298Z,11.30
2018-12-03T20:53:21.363Z,11.30
2018-12-03T20:55:49.899Z,11.30
2018-12-03T20:58:19.202Z,11.30
2018-12-03T21:00:50.730Z,11.30
2018-12-03T21:03:19.147Z,11.40
2018-12-03T21:05:47.596Z,11.30
2018-12-03T21:08:16.148Z,11.30
2018-12-03T21:11:00.280Z,11.40
2018-12-03T21:13:31.127Z,11.40
2018-12-03T21:16:01.343Z,11.40
2018-12-03T21:18:29.793Z,11.40
2018-12-03T21:20:58.250Z,11.40
2018-12-03T21:23:26.655Z,11.40
2018-12-03T21:25:55.112Z,11.40
2018-12-03T21:28:23.526Z,11.30
2018-12-03T21:30:51.948Z,11.30
2018-12-03T21:33:20.402Z,11.30
2018-12-03T21:35:48.827Z,11.10
2018-12-03T21:38:17.718Z,11.10
2018-12-03T21:40:46.157Z,11.10
2018-12-03T21:43:14.629Z,11.10
2018-12-03T21:45:43.080Z,11.10
2018-12-03T21:48:11.552Z,11.10
2018-12-03T21:50:40.095Z,11.10
2018-12-03T21:53:08.560Z,11.10
2018-12-03T21:55:37.057Z,11.10
2018-12-03T21:58:05.639Z,11.10
2018-12-03T22:00:34.766Z,11.10
2018-12-03T22:03:03.336Z,11.10
2018-12-03T22:05:31.846Z,11.10
2018-12-03T22:08:00.372Z,11.00
2018-12-03T22:10:28.893Z,11.00
2018-12-03T22:12:57.359Z,11.00
2018-12-03T22:15:25.787Z,11.00
2018-12-03T22:17:54.272Z,10.90
2018-12-03T22:20:22.700Z,10.90
2018-12-03T22:22:51.247Z,10.90
2018-12-03T22:25:19.685Z,10.90
2018-12-03T22:27:48.146Z,10.80
2018-12-03T22:30:16.605Z,10.80
2018-12-03T22:32:45.108Z,10.80
2018-12-03T22:35:13.546Z,10.80
2018-12-03T22:37:42.016Z,10.80
2018-12-03T22:40:10.548Z,10.90
2018-12-03T22:42:39.010Z,10.80
2018-12-03T22:45:07.836Z,10.90
2018-12-03T22:47:36.297Z,10.90
2018-12-03T22:50:05.276Z,10.90
2018-12-03T22:52:33.780Z,10.80
2018-12-03T22:55:02.269Z,10.80
2018-12-03T22:57:30.756Z,10.70
2018-12-03T22:59:59.234Z,10.70
2018-12-03T23:02:27.711Z,10.70
2018-12-03T23:04:56.172Z,10.70
2018-12-03T23:07:24.653Z,10.60
2018-12-03T23:09:53.108Z,10.60
2018-12-03T23:12:21.700Z,10.60
2018-12-03T23:14:50.194Z,10.60
2018-12-03T23:17:18.706Z,10.40
2018-12-03T23:19:47.132Z,10.40
2018-12-03T23:22:15.628Z,10.40
2018-12-03T23:24:44.132Z,10.40
2018-12-03T23:27:12.623Z,10.40
2018-12-03T23:29:41.116Z,10.30
2018-12-03T23:32:09.576Z,10.30
2018-12-03T23:34:38.070Z,10.20
2018-12-03T23:37:06.577Z,10.20
2018-12-03T23:39:35.044Z,10.20
2018-12-03T23:42:03.505Z,10.10
2018-12-03T23:44:31.951Z,10.10
2018-12-03T23:47:00.424Z,10.10
2018-12-03T23:49:28.877Z,10.00
2018-12-03T23:51:57.369Z,10.00
2018-12-03T23:54:25.837Z,10.00
2018-12-03T23:56:54.293Z,9.90
2018-12-03T23:59:22.757Z,9.90
